Time;durP1;ratioP1;P1;durP2;ratioP2;P2;SDS_P1;SDS_P2;PMS_P1;PMS_P2;Temp;Humidity;BMP_temperature;BMP_pressure;BME280_temperature;BME280_humidity;BME280_pressure;Samples;Min_cycle;Max_cycle;Signal;HPM_P1;HPM_P2
2022/02/07 00:00:15;;;;;;;3.30;2.20;;;;;;;3.84;84.49;97581.08;105967;1273;97817;-75
2022/02/07 00:03:15;;;;;;;2.80;2.10;;;;;;;3.84;84.62;97579.19;105868;1274;137429;-74
2022/02/07 00:05:47;;;;;;;2.90;2.00;;;;;;;3.83;84.42;97580.27;107593;1273;108414;-76
2022/02/07 00:08:19;;;;;;;4.00;2.10;;;;;;;3.83;84.52;97582.13;107494;1273;107774;-75
2022/02/07 00:10:51;;;;;;;4.00;1.90;;;;;;;3.85;84.91;97583.27;105834;1274;138097;-76
2022/02/07 00:13:23;;;;;;;4.30;2.50;;;;;;;3.85;84.88;97588.23;106065;1272;97815;-76
2022/02/07 00:15:55;;;;;;;3.30;1.90;;;;;;;3.87;85.23;97589.54;105888;1274;139480;-75
2022/02/07 00:18:27;;;;;;;3.60;2.20;;;;;;;3.87;85.09;97600.36;105977;1272;107815;-75
2022/02/07 00:21:00;;;;;;;4.20;2.00;;;;;;;3.88;84.76;97607.53;105914;1274;138799;-75
2022/02/07 00:23:32;;;;;;;3.20;1.90;;;;;;;3.88;85.19;97608.88;106014;1274;97878;-75
2022/02/07 00:26:05;;;;;;;4.20;2.20;;;;;;;3.88;85.15;97604.44;106002;1273;98217;-75
2022/02/07 00:28:37;;;;;;;3.80;2.30;;;;;;;3.85;85.05;97612.30;105954;1274;139534;-75
2022/02/07 00:31:09;;;;;;;3.80;2.00;;;;;;;3.86;85.24;97617.73;106007;1274;109250;-74
2022/02/07 00:33:41;;;;;;;3.10;1.90;;;;;;;3.87;85.24;97624.58;105882;1274;138779;-74
2022/02/07 00:36:17;;;;;;;2.30;1.60;;;;;;;3.88;84.89;97627.29;105953;1273;97928;-74
2022/02/07 00:38:54;;;;;;;3.70;1.80;;;;;;;3.89;84.67;97635.29;105883;1274;138049;-75
2022/02/07 00:41:34;;;;;;;3.10;1.80;;;;;;;3.91;84.71;97642.97;105994;1274;111328;-74
2022/02/07 00:44:12;;;;;;;3.60;1.90;;;;;;;3.93;84.54;97627.21;105929;1273;108098;-75
2022/02/07 00:46:51;;;;;;;2.20;1.70;;;;;;;3.96;84.26;97643.27;105911;1274;139287;-75
2022/02/07 00:49:24;;;;;;;2.30;1.50;;;;;;;3.98;84.29;97647.11;106036;1274;97824;-73
2022/02/07 00:51:56;;;;;;;2.00;1.30;;;;;;;4.00;84.22;97657.48;105850;1274;138188;-76
2022/02/07 00:54:28;;;;;;;1.90;1.30;;;;;;;4.00;84.20;97653.91;106124;1274;112581;-74
2022/02/07 00:57:00;;;;;;;4.00;1.50;;;;;;;3.97;84.10;97665.56;105929;1273;138347;-76
2022/02/07 00:59:32;;;;;;;1.80;1.30;;;;;;;3.93;84.22;97664.86;106011;1274;108791;-76
2022/02/07 01:02:05;;;;;;;2.80;1.40;;;;;;;3.89;83.97;97667.64;106054;1273;97812;-75
2022/02/07 01:04:37;;;;;;;3.70;1.20;;;;;;;3.86;84.23;97672.60;105974;1274;139340;-74
2022/02/07 01:07:13;;;;;;;3.00;1.30;;;;;;;3.84;84.47;97672.37;106053;1274;111353;-74
2022/02/07 01:09:51;;;;;;;1.80;1.20;;;;;;;3.80;84.33;97676.84;105962;1274;138418;-74
2022/02/07 01:12:43;;;;;;;2.10;1.20;;;;;;;3.79;84.29;97679.29;106037;1274;108503;-74
2022/02/07 01:15:36;;;;;;;1.10;1.00;;;;;;;3.76;84.60;97681.64;105950;1273;138195;-75
2022/02/07 01:22:03;;;;;;;1.60;1.40;;;;;;;3.73;84.56;97684.72;105864;1274;138122;-75
2022/02/07 01:50:52;;;;;;;1.50;1.30;;;;;;;3.63;83.81;97713.17;105720;1278;112600;-74
2022/02/07 01:57:18;;;;;;;3.30;1.60;;;;;;;3.61;83.82;97719.45;105532;1277;138315;-73
2022/02/07 01:59:54;;;;;;;1.50;1.40;;;;;;;3.60;83.84;97726.17;105694;1278;97867;-74
2022/02/07 02:02:27;;;;;;;1.70;1.30;;;;;;;3.61;83.66;97725.83;106754;1277;97378;-74
2022/02/07 02:05:02;;;;;;;2.00;1.50;;;;;;;3.59;83.52;97724.16;105769;1274;138101;-75
2022/02/07 02:07:41;;;;;;;3.00;1.60;;;;;;;3.60;83.67;97728.61;106027;1273;108329;-74
2022/02/07 02:10:14;;;;;;;2.40;1.50;;;;;;;3.60;83.70;97732.87;107448;1274;138718;-75
2022/02/07 02:12:55;;;;;;;2.60;1.50;;;;;;;3.61;83.57;97734.06;107516;1273;96202;-75
2022/02/07 02:15:37;;;;;;;3.00;1.40;;;;;;;3.62;83.55;97738.29;106062;1274;138087;-75
2022/02/07 02:35:56;;;;;;;1.50;1.40;;;;;;;3.60;82.92;97765.71;105334;1278;138271;-75
2022/02/07 02:38:43;;;;;;;3.70;1.80;;;;;;;3.58;82.78;97766.27;105531;1278;107931;-75
2022/02/07 02:46:52;;;;;;;2.00;1.40;;;;;;;3.56;82.46;97767.09;105666;1282;139852;-72
2022/02/07 02:49:32;;;;;;;2.40;1.50;;;;;;;3.55;82.52;97763.34;105142;1282;109221;-73
2022/02/07 02:52:05;;;;;;;1.60;1.20;;;;;;;3.55;82.28;97765.55;105200;1282;138756;-74
2022/02/07 02:54:37;;;;;;;2.40;1.30;;;;;;;3.54;82.08;97771.47;105214;1282;97891;-74
2022/02/07 02:57:09;;;;;;;1.40;1.10;;;;;;;3.53;82.11;97776.46;105232;1282;97867;-75
2022/02/07 02:59:41;;;;;;;1.80;1.10;;;;;;;3.53;81.87;97773.76;105073;1280;137806;-74
2022/02/07 03:02:13;;;;;;;2.20;0.90;;;;;;;3.54;82.02;97777.63;105639;1278;108895;-74
2022/02/07 03:04:45;;;;;;;1.60;1.00;;;;;;;3.53;81.89;97782.82;105649;1277;139680;-74
2022/02/07 03:07:17;;;;;;;2.60;0.90;;;;;;;3.55;81.84;97785.67;105765;1278;97947;-74
2022/02/07 03:09:50;;;;;;;4.00;1.30;;;;;;;3.56;81.75;97788.56;105654;1277;138279;-74
2022/02/07 03:12:22;;;;;;;4.60;1.40;;;;;;;3.56;82.03;97792.31;105822;1276;112631;-75
2022/02/07 03:15:12;;;;;;;2.10;1.80;;;;;;;3.56;81.95;97793.02;105657;1276;108982;-75
2022/02/07 03:17:45;;;;;;;3.60;1.70;;;;;;;3.53;81.83;97795.04;105509;1276;137865;-74
2022/02/07 03:20:18;;;;;;;5.00;1.90;;;;;;;3.50;81.83;97795.16;105604;1277;98487;-74
2022/02/07 03:22:50;;;;;;;3.30;2.10;;;;;;;3.49;81.95;97801.56;105597;1276;140403;-73
2022/02/07 03:25:22;;;;;;;1.90;1.70;;;;;;;3.46;81.76;97798.64;105806;1274;111475;-74
2022/02/07 03:27:57;;;;;;;2.60;1.80;;;;;;;3.45;81.86;97806.40;105903;1274;138973;-75
2022/02/07 03:30:37;;;;;;;2.50;1.40;;;;;;;3.44;81.67;97811.42;105995;1274;108206;-75
2022/02/07 03:33:09;;;;;;;2.30;1.80;;;;;;;3.42;81.79;97818.91;105919;1274;97946;-74
2022/02/07 03:35:42;;;;;;;2.40;1.40;;;;;;;3.40;81.74;97814.67;105902;1273;137801;-76
2022/02/07 03:38:15;;;;;;;4.20;1.50;;;;;;;3.37;81.71;97826.98;105956;1274;112439;-76
2022/02/07 03:40:49;;;;;;;2.00;1.60;;;;;;;3.34;81.51;97833.64;105869;1274;137301;-75
2022/02/07 03:43:21;;;;;;;2.70;2.00;;;;;;;3.33;81.62;97840.21;105938;1274;109365;-76
2022/02/07 03:45:54;;;;;;;5.00;1.90;;;;;;;3.28;81.54;97840.23;105850;1274;138981;-75
2022/02/07 03:48:26;;;;;;;3.70;1.90;;;;;;;3.26;81.74;97843.09;105904;1273;97844;-75
2022/02/07 03:50:58;;;;;;;3.50;2.20;;;;;;;3.22;81.82;97847.52;105947;1274;111397;-75
2022/02/07 03:53:31;;;;;;;2.70;2.20;;;;;;;3.21;81.75;97851.17;105930;1274;138241;-74
2022/02/07 03:56:07;;;;;;;3.60;1.80;;;;;;;3.21;81.66;97852.02;105919;1274;107906;-75
2022/02/07 03:58:42;;;;;;;4.60;2.00;;;;;;;3.24;81.58;97854.50;105830;1274;139140;-74
2022/02/07 04:01:14;;;;;;;2.30;1.70;;;;;;;3.26;81.61;97863.20;105989;1273;97946;-73
2022/02/07 04:03:49;;;;;;;;;;;;;;;3.27;81.44;97866.59;105870;1274;137832;-74
2022/02/07 04:06:23;;;;;;;2.90;1.90;;;;;;;3.26;81.28;97875.02;105945;1273;108327;-75
2022/02/07 04:09:12;;;;;;;4.40;2.00;;;;;;;3.25;81.31;97881.10;106006;1273;108514;-74
2022/02/07 04:11:55;;;;;;;4.60;2.40;;;;;;;3.25;81.47;97881.10;105831;1274;137790;-74
2022/02/07 04:14:27;;;;;;;3.90;2.10;;;;;;;3.24;81.08;97880.77;105994;1274;97852;-74
2022/02/07 04:17:10;;;;;;;4.20;1.90;;;;;;;3.23;81.16;97878.41;105794;1274;137365;-75
2022/02/07 04:19:43;;;;;;;5.50;1.90;;;;;;;3.21;81.09;97885.16;106000;1274;107825;-75
2022/02/07 04:22:16;;;;;;;3.60;1.90;;;;;;;3.20;81.08;97885.06;105856;1274;139662;-75
2022/02/07 04:25:03;;;;;;;2.90;1.80;;;;;;;3.21;81.14;97883.13;105945;1274;98031;-75
2022/02/07 04:27:40;;;;;;;2.60;1.90;;;;;;;3.21;80.89;97885.69;105851;1274;138488;-75
2022/02/07 04:30:14;;;;;;;4.60;1.70;;;;;;;3.20;80.84;97891.06;105972;1274;113214;-75
2022/02/07 04:32:47;;;;;;;4.30;1.90;;;;;;;3.22;80.77;97892.71;106003;1274;107938;-75
2022/02/07 04:35:19;;;;;;;3.50;2.20;;;;;;;3.22;80.87;97890.82;105858;1274;139006;-75
2022/02/07 04:37:53;;;;;;;5.60;2.60;;;;;;;3.24;81.12;97884.90;105959;1274;97952;-75
2022/02/07 04:40:25;;;;;;;4.40;2.00;;;;;;;3.25;80.70;97884.33;105895;1274;138948;-75
2022/02/07 04:42:58;;;;;;;5.00;2.60;;;;;;;3.21;80.54;97884.48;105973;1274;111244;-75
2022/02/07 04:45:46;;;;;;;4.50;2.00;;;;;;;3.16;80.59;97887.27;105863;1273;138355;-75
2022/02/07 04:48:43;;;;;;;4.20;1.90;;;;;;;3.13;80.56;97893.40;106070;1274;107697;-75
2022/02/07 04:54:20;;;;;;;4.30;2.10;;;;;;;3.13;80.74;97901.13;105855;1274;138270;-75
2022/02/07 04:59:49;;;;;;;3.20;1.90;;;;;;;3.15;80.69;97902.95;105946;1273;138233;-75
2022/02/07 05:02:27;;;;;;;6.30;2.00;;;;;;;3.13;80.55;97904.40;105971;1274;109089;-75
2022/02/07 05:05:13;;;;;;;3.40;1.70;;;;;;;3.13;80.49;97906.48;105911;1273;137835;-75
2022/02/07 05:13:45;;;;;;;5.70;2.30;;;;;;;3.13;80.21;97917.27;106004;1274;108375;-75
2022/02/07 05:16:23;;;;;;;5.00;2.20;;;;;;;3.06;80.06;97921.85;105785;1273;138548;-75
2022/02/07 05:19:05;;;;;;;3.80;1.90;;;;;;;3.01;80.28;97925.45;105930;1274;97838;-76
2022/02/07 05:21:57;;;;;;;5.50;2.30;;;;;;;2.95;80.44;97925.02;105622;1273;139309;-75
2022/02/07 05:24:56;;;;;;;4.80;2.10;;;;;;;2.92;80.35;97927.88;105851;1272;112376;-75
2022/02/07 05:27:46;;;;;;;5.60;2.90;;;;;;;2.94;80.54;97926.44;105958;1274;139395;-74
2022/02/07 05:30:41;;;;;;;4.10;2.10;;;;;;;2.96;80.54;97933.88;105730;1274;108965;-76
2022/02/07 05:33:42;;;;;;;4.40;2.20;;;;;;;2.99;80.69;97933.10;105551;1275;97840;-74
2022/02/07 05:36:46;;;;;;;8.20;2.50;;;;;;;3.07;80.62;97939.84;105635;1275;98188;-75
2022/02/07 05:39:41;;;;;;;6.50;2.20;;;;;;;3.13;80.43;97945.10;106002;1274;113721;-75
2022/02/07 05:42:22;;;;;;;5.10;2.30;;;;;;;3.14;80.34;97944.18;105900;1273;139920;-74
2022/02/07 05:45:17;;;;;;;6.10;2.80;;;;;;;3.14;80.20;97949.71;105915;1273;107753;-75
2022/02/07 05:47:48;;;;;;;5.80;2.60;;;;;;;3.14;80.21;97956.89;105898;1274;137501;-75
2022/02/07 05:50:32;;;;;;;7.40;3.90;;;;;;;3.14;80.12;97954.99;106028;1274;97816;-75
2022/02/07 05:53:24;;;;;;;6.60;2.90;;;;;;;3.15;80.16;97959.94;105896;1273;137225;-75
2022/02/07 05:56:05;;;;;;;7.70;2.50;;;;;;;3.19;80.29;97964.94;106008;1274;109041;-75
2022/02/07 05:58:43;;;;;;;5.70;3.20;;;;;;;3.20;79.87;97965.42;105951;1274;138263;-75
2022/02/07 06:01:41;;;;;;;9.10;3.30;;;;;;;3.21;80.13;97960.73;105841;1274;98068;-74
2022/02/07 06:04:14;;;;;;;5.40;2.60;;;;;;;3.21;80.10;97958.70;105784;1274;139150;-75
2022/02/07 06:06:46;;;;;;;3.90;2.20;;;;;;;3.22;80.10;97962.77;105988;1274;112440;-75
2022/02/07 06:09:18;;;;;;;5.00;2.50;;;;;;;3.25;80.02;97965.95;105944;1274;108971;-73
2022/02/07 06:11:56;;;;;;;8.70;2.50;;;;;;;3.28;80.06;97971.11;105820;1274;138995;-76
2022/02/07 06:14:28;;;;;;;3.80;2.20;;;;;;;3.34;79.99;97975.02;107530;1274;96980;-75
2022/02/07 06:17:01;;;;;;;7.70;2.80;;;;;;;3.37;80.03;97979.18;107449;1273;138012;-77
2022/02/07 06:19:36;;;;;;;5.30;3.40;;;;;;;3.40;79.95;97981.98;107557;1274;112527;-76
2022/02/07 06:22:08;;;;;;;4.70;2.90;;;;;;;3.44;79.85;97988.71;107589;1272;108190;-76
2022/02/07 06:24:42;;;;;;;6.60;2.80;;;;;;;3.48;79.91;97992.83;107445;1274;138401;-76
2022/02/07 06:27:14;;;;;;;6.40;3.10;;;;;;;3.53;79.88;97997.95;107576;1274;97030;-75
2022/02/07 06:29:47;;;;;;;6.10;2.60;;;;;;;3.53;79.91;98003.77;107523;1273;138617;-77
2022/02/07 06:32:19;;;;;;;10.80;3.20;;;;;;;3.55;79.83;98006.12;106326;1274;113241;-74
2022/02/07 06:34:52;;;;;;;7.90;3.10;;;;;;;3.53;79.62;98005.34;105901;1274;140415;-74
2022/02/07 06:37:25;;;;;;;7.10;2.80;;;;;;;3.48;79.36;98011.55;106010;1274;107391;-74
2022/02/07 06:39:57;;;;;;;8.30;3.40;;;;;;;3.39;79.19;98013.64;106027;1274;97938;-74
2022/02/07 06:42:29;;;;;;;4.70;2.40;;;;;;;3.28;79.23;98015.79;105892;1273;138223;-73
2022/02/07 06:45:03;;;;;;;5.90;2.80;;;;;;;3.19;79.20;98028.98;107611;1273;112454;-74
2022/02/07 06:47:38;;;;;;;6.50;2.60;;;;;;;3.11;79.28;98036.71;107409;1274;138561;-74
2022/02/07 06:50:11;;;;;;;5.80;2.60;;;;;;;2.98;79.14;98043.52;106298;1273;108687;-73
2022/02/07 06:52:43;;;;;;;4.60;2.30;;;;;;;2.82;79.03;98051.48;107431;1274;140737;-75
2022/02/07 06:55:15;;;;;;;4.80;2.30;;;;;;;2.69;78.92;98056.06;107001;1273;95976;-75
2022/02/07 06:57:49;;;;;;;4.70;2.50;;;;;;;2.55;79.07;98058.63;106081;1274;112085;-76
2022/02/07 07:00:23;;;;;;;5.00;2.70;;;;;;;2.45;79.19;98063.78;105955;1274;138303;-74
2022/02/07 07:02:58;;;;;;;8.20;2.50;;;;;;;2.32;79.27;98065.38;106006;1274;107735;-76
2022/02/07 07:05:31;;;;;;;3.20;2.00;;;;;;;2.21;79.42;98072.66;105866;1274;139046;-75
2022/02/07 07:08:06;;;;;;;5.00;2.00;;;;;;;2.12;79.67;98075.30;106101;1274;97835;-74
2022/02/07 07:10:38;;;;;;;3.90;2.40;;;;;;;2.10;79.94;98074.53;105926;1274;138888;-74
2022/02/07 07:13:17;;;;;;;4.10;1.90;;;;;;;2.03;79.89;98081.63;105950;1274;107900;-74
2022/02/07 07:15:54;;;;;;;3.40;2.10;;;;;;;2.05;80.48;98086.38;105944;1273;107753;-75
2022/02/07 07:18:26;;;;;;;3.10;2.50;;;;;;;2.06;80.48;98088.75;105888;1274;137354;-75
2022/02/07 07:20:58;;;;;;;4.00;2.80;;;;;;;2.07;80.65;98092.29;105972;1274;97869;-75
2022/02/07 07:23:32;;;;;;;4.30;3.10;;;;;;;2.09;80.58;98095.48;105805;1274;137052;-74
2022/02/07 07:26:07;;;;;;;4.50;3.50;;;;;;;2.08;80.56;98101.31;107529;1274;107612;-75
2022/02/07 07:28:41;;;;;;;6.50;3.70;;;;;;;2.09;80.74;98103.70;107438;1274;139196;-74
2022/02/07 07:31:14;;;;;;;4.70;3.60;;;;;;;2.11;80.70;98104.69;107517;1273;96227;-75
2022/02/07 07:33:52;;;;;;;6.90;3.90;;;;;;;2.14;80.58;98110.75;107585;1274;95997;-76
2022/02/07 07:36:25;;;;;;;7.00;4.40;;;;;;;2.16;80.50;98113.97;107432;1274;138614;-76
2022/02/07 07:38:58;;;;;;;4.60;3.60;;;;;;;2.18;80.42;98120.92;107239;1273;108791;-76
2022/02/07 07:41:30;;;;;;;5.10;3.90;;;;;;;2.21;80.53;98126.50;105758;1274;138508;-75
2022/02/07 07:44:13;;;;;;;5.40;4.30;;;;;;;2.25;80.48;98132.02;105915;1274;97859;-74
2022/02/07 07:47:09;;;;;;;6.80;4.90;;;;;;;2.30;80.56;98136.97;105905;1274;137744;-74
2022/02/07 07:50:20;;;;;;;8.50;6.20;;;;;;;2.32;80.44;98136.72;105988;1274;112655;-75
2022/02/07 07:53:43;;;;;;;10.40;7.60;;;;;;;2.36;80.38;98147.77;105512;1278;140323;-75
2022/02/07 08:02:15;;;;;;;12.70;8.70;;;;;;;2.26;80.07;98171.58;105941;1273;97870;-74
2022/02/07 08:04:48;;;;;;;16.10;8.30;;;;;;;2.25;80.36;98176.59;105968;1273;138530;-74
2022/02/07 08:07:24;;;;;;;10.70;7.30;;;;;;;2.28;80.51;98184.01;105938;1274;107605;-75
2022/02/07 08:12:57;;;;;;;9.50;6.90;;;;;;;2.25;80.34;98193.04;107381;1273;138944;-75
2022/02/07 08:15:29;;;;;;;14.00;8.20;;;;;;;2.21;80.33;98202.95;107156;1274;97842;-74
2022/02/07 08:18:01;;;;;;;8.90;7.10;;;;;;;2.19;80.37;98209.52;105972;1274;138377;-75
2022/02/07 08:20:33;;;;;;;11.00;7.10;;;;;;;2.20;80.34;98217.73;105955;1274;107793;-75
2022/02/07 08:23:07;;;;;;;11.60;7.00;;;;;;;2.18;80.31;98223.27;105940;1274;140166;-75
2022/02/07 08:25:39;;;;;;;9.50;7.40;;;;;;;2.14;80.25;98229.20;106022;1273;97920;-76
2022/02/07 08:28:11;;;;;;;13.40;8.60;;;;;;;2.10;80.29;98227.80;105906;1274;97838;-75
2022/02/07 08:30:43;;;;;;;20.50;12.80;;;;;;;2.07;80.26;98235.25;105919;1274;140129;-75
2022/02/07 08:33:16;;;;;;;20.80;12.50;;;;;;;2.06;80.46;98234.60;106073;1274;107581;-75
2022/02/07 08:35:48;;;;;;;26.20;15.30;;;;;;;2.05;80.43;98241.48;105857;1273;138787;-75
2022/02/07 08:38:20;;;;;;;27.30;13.60;;;;;;;2.05;80.59;98244.08;106015;1275;97858;-75
2022/02/07 08:40:53;;;;;;;12.40;7.40;;;;;;;2.03;80.55;98264.02;105935;1274;138335;-75
2022/02/07 08:43:25;;;;;;;13.10;7.20;;;;;;;2.01;80.66;98268.38;106039;1274;111118;-75
2022/02/07 08:45:57;;;;;;;9.70;5.60;;;;;;;1.96;80.54;98273.98;105987;1274;108306;-75
2022/02/07 08:48:29;;;;;;;19.00;9.20;;;;;;;1.92;80.63;98273.91;105799;1274;138914;-75
2022/02/07 08:51:04;;;;;;;12.10;7.20;;;;;;;1.94;80.74;98279.34;105810;1274;97849;-75
2022/02/07 08:53:40;;;;;;;18.30;9.60;;;;;;;1.94;80.85;98282.77;105809;1274;138652;-75
2022/02/07 08:56:13;;;;;;;17.00;8.60;;;;;;;1.89;80.72;98288.23;106066;1275;111394;-75
2022/02/07 08:58:47;;;;;;;20.80;9.70;;;;;;;1.82;80.67;98294.61;105976;1275;137711;-74
2022/02/07 09:01:24;;;;;;;13.50;7.70;;;;;;;1.78;80.82;98297.77;106018;1274;108342;-74
2022/02/07 09:06:57;;;;;;;7.90;5.80;;;;;;;1.82;81.01;98306.95;105846;1274;138683;-74
2022/02/07 09:09:29;;;;;;;10.50;5.30;;;;;;;1.83;81.06;98313.27;105999;1274;111608;-74
2022/02/07 09:12:02;;;;;;;7.30;4.50;;;;;;;1.80;81.17;98322.07;105833;1274;139782;-75
2022/02/07 09:14:44;;;;;;;7.10;4.40;;;;;;;1.74;81.03;98326.86;105946;1274;107841;-74
2022/02/07 09:17:16;;;;;;;5.80;4.00;;;;;;;1.74;81.23;98334.92;105856;1274;140343;-73
2022/02/07 09:19:48;;;;;;;4.90;4.20;;;;;;;1.71;81.24;98340.30;105935;1274;97840;-74
2022/02/07 09:22:20;;;;;;;7.50;4.00;;;;;;;1.70;81.46;98340.86;106089;1274;112727;-75
2022/02/07 09:24:52;;;;;;;8.60;4.80;;;;;;;1.67;81.39;98345.91;105765;1274;139770;-74
2022/02/07 09:27:24;;;;;;;7.30;5.40;;;;;;;1.68;81.66;98351.02;105881;1274;108055;-74
2022/02/07 09:29:56;;;;;;;5.60;4.40;;;;;;;1.69;81.62;98349.27;105845;1274;139597;-74
2022/02/07 09:32:28;;;;;;;6.30;4.80;;;;;;;1.69;81.66;98361.09;105811;1274;97690;-74
2022/02/07 09:35:00;;;;;;;8.20;4.90;;;;;;;1.69;81.64;98362.27;105956;1274;138058;-74
2022/02/07 09:37:31;;;;;;;8.70;5.20;;;;;;;1.70;81.87;98367.23;106103;1274;107974;-74
2022/02/07 09:40:04;;;;;;;7.00;5.30;;;;;;;1.69;81.89;98370.17;106044;1274;109001;-75
2022/02/07 09:42:41;;;;;;;7.00;5.10;;;;;;;1.69;81.95;98371.21;106020;1274;138210;-74
2022/02/07 09:45:19;;;;;;;8.00;5.20;;;;;;;1.67;81.88;98381.02;105966;1274;97718;-75
2022/02/07 09:47:51;;;;;;;9.50;5.60;;;;;;;1.66;82.13;98384.47;105792;1274;137845;-75
2022/02/07 09:50:23;;;;;;;12.40;6.00;;;;;;;1.67;82.12;98385.64;106047;1273;108411;-75
2022/02/07 09:52:55;;;;;;;7.80;5.60;;;;;;;1.72;82.28;98393.55;105881;1274;139208;-74
2022/02/07 09:55:28;;;;;;;8.20;5.80;;;;;;;1.75;82.28;98393.98;106015;1274;97859;-74
2022/02/07 09:58:00;;;;;;;11.10;6.10;;;;;;;1.80;82.40;98396.95;105971;1274;97940;-75
2022/02/07 10:00:35;;;;;;;7.70;5.90;;;;;;;1.83;82.29;98400.49;105972;1274;138116;-75
2022/02/07 10:03:13;;;;;;;9.90;4.90;;;;;;;1.82;82.00;98403.61;105979;1274;107737;-74
2022/02/07 10:05:51;;;;;;;9.30;4.90;;;;;;;1.80;82.32;98409.45;105918;1274;138047;-75
2022/02/07 10:08:38;;;;;;;7.70;4.90;;;;;;;1.82;82.28;98416.09;107056;1273;96532;-74
2022/02/07 10:11:27;;;;;;;7.90;4.40;;;;;;;1.83;82.19;98417.96;107542;1273;138173;-75
2022/02/07 10:14:05;;;;;;;6.00;4.10;;;;;;;1.83;82.24;98420.70;106930;1274;112724;-73
2022/02/07 10:16:51;;;;;;;6.00;4.10;;;;;;;1.84;82.26;98427.38;105801;1274;138218;-73
2022/02/07 10:19:37;;;;;;;8.00;4.00;;;;;;;1.88;82.30;98430.34;106043;1274;108928;-74
2022/02/07 10:40:22;;;;;;;5.80;3.60;;;;;;;2.00;81.79;98447.16;105287;1278;98033;-72
2022/02/07 10:43:22;;;;;;;4.70;3.50;;;;;;;1.95;81.91;98450.55;106793;1278;138133;-73
2022/02/07 10:46:01;;;;;;;3.40;3.00;;;;;;;1.90;81.99;98453.92;106898;1278;108460;-73
2022/02/07 10:48:39;;;;;;;4.30;3.20;;;;;;;1.83;81.88;98470.91;106801;1279;139211;-73
2022/02/07 10:51:14;;;;;;;5.70;2.60;;;;;;;1.79;82.10;98475.62;106964;1278;96282;-73
2022/02/07 10:53:47;;;;;;;3.00;2.60;;;;;;;1.74;81.76;98473.00;106888;1278;139731;-73
2022/02/07 10:56:21;;;;;;;4.70;2.90;;;;;;;1.66;82.16;98485.56;107133;1278;112486;-74
2022/02/07 10:58:55;;;;;;;3.20;2.60;;;;;;;1.57;82.19;98499.13;107034;1279;139163;-73
2022/02/07 11:01:39;;;;;;;4.60;2.80;;;;;;;1.52;82.28;98509.52;107098;1275;106038;-73
2022/02/07 11:04:14;;;;;;;4.20;2.80;;;;;;;1.46;82.37;98513.62;107213;1274;97843;-73
2022/02/07 11:06:51;;;;;;;3.80;2.70;;;;;;;1.42;82.43;98522.59;105895;1274;138055;-73
2022/02/07 11:09:27;;;;;;;6.60;3.20;;;;;;;1.38;82.54;98531.42;105936;1274;111433;-73
2022/02/07 11:12:24;;;;;;;4.10;3.00;;;;;;;1.37;82.80;98534.55;105918;1274;138363;-72
2022/02/07 11:15:11;;;;;;;5.70;3.20;;;;;;;1.32;82.80;98545.45;105898;1275;108978;-74
2022/02/07 11:18:01;;;;;;;3.60;2.60;;;;;;;1.29;82.90;98547.73;105821;1274;138088;-74
2022/02/07 11:21:04;;;;;;;6.80;2.60;;;;;;;1.26;82.97;98557.73;105860;1274;97938;-74
2022/02/07 11:23:47;;;;;;;3.40;2.50;;;;;;;1.23;83.09;98565.65;105936;1274;138607;-75
2022/02/07 11:26:35;;;;;;;3.50;2.60;;;;;;;1.19;83.05;98577.72;105568;1274;108103;-76
2022/02/07 11:29:27;;;;;;;3.50;2.40;;;;;;;1.18;83.30;98587.34;105484;1274;138294;-72
2022/02/07 11:31:59;;;;;;;3.30;2.50;;;;;;;1.15;83.45;98596.81;105751;1274;97971;-73
2022/02/07 11:34:44;;;;;;;3.90;2.90;;;;;;;1.12;83.33;98604.92;105596;1274;99511;-71
2022/02/07 11:37:23;;;;;;;5.80;3.30;;;;;;;1.13;83.42;98611.59;107374;1273;138423;-73
2022/02/07 11:39:55;;;;;;;5.60;3.60;;;;;;;1.13;83.51;98622.70;107348;1274;107823;-72
2022/02/07 11:42:31;;;;;;;6.70;3.70;;;;;;;1.15;83.54;98625.58;107357;1273;139950;-73
2022/02/07 11:45:24;;;;;;;5.90;3.80;;;;;;;1.16;83.76;98629.64;107295;1274;96687;-73
2022/02/07 11:48:11;;;;;;;6.10;4.40;;;;;;;1.17;83.60;98638.20;107372;1273;138264;-73
2022/02/07 11:50:46;;;;;;;8.20;4.50;;;;;;;1.22;83.74;98647.16;107305;1274;111034;-72
2022/02/07 11:53:21;;;;;;;6.40;4.60;;;;;;;1.27;83.81;98655.46;106880;1273;138054;-72
2022/02/07 11:56:06;;;;;;;5.80;4.30;;;;;;;1.33;83.79;98658.24;105544;1274;108927;-72
2022/02/07 11:59:12;;;;;;;8.80;4.70;;;;;;;1.38;83.46;98666.19;105822;1273;97825;-73
2022/02/07 12:01:58;;;;;;;6.50;5.00;;;;;;;1.42;83.58;98674.33;106759;1274;97930;-73
2022/02/07 12:04:37;;;;;;;8.00;5.00;;;;;;;1.47;83.58;98673.39;105886;1274;111670;-73
2022/02/07 12:07:36;;;;;;;8.60;5.00;;;;;;;1.48;83.66;98679.70;106835;1274;138112;-72
2022/02/07 12:10:36;;;;;;;8.60;5.30;;;;;;;1.53;83.68;98690.21;107459;1274;107742;-73
2022/02/07 12:13:32;;;;;;;9.30;5.90;;;;;;;1.63;83.67;98700.62;107249;1274;139107;-72
2022/02/07 12:16:12;;;;;;;9.90;6.30;;;;;;;1.69;83.46;98710.08;107259;1273;97022;-75
2022/02/07 12:19:08;;;;;;;11.10;6.40;;;;;;;1.73;83.52;98712.39;107107;1274;138456;-74
2022/02/07 12:21:52;;;;;;;12.40;7.00;;;;;;;1.83;83.43;98712.20;107212;1274;109004;-73
2022/02/07 12:24:55;;;;;;;9.50;6.40;;;;;;;1.94;83.51;98718.45;107262;1274;138056;-73
2022/02/07 12:27:29;;;;;;;14.30;7.40;;;;;;;2.01;83.22;98717.12;107356;1274;96214;-74
2022/02/07 12:32:47;;;;;;;11.40;7.10;;;;;;;2.06;82.84;98731.05;107292;1274;111502;-73
2022/02/07 12:35:23;;;;;;;9.20;6.70;;;;;;;2.07;82.80;98737.71;107332;1274;109603;-73
2022/02/07 12:37:56;;;;;;;9.90;6.80;;;;;;;2.07;82.59;98741.33;107202;1274;138960;-74
2022/02/07 12:40:28;;;;;;;11.70;6.30;;;;;;;2.09;82.67;98746.06;107451;1274;96868;-75
2022/02/07 12:43:04;;;;;;;11.20;6.20;;;;;;;2.11;82.59;98758.21;107525;1274;139765;-74
2022/02/07 12:45:38;;;;;;;11.60;6.00;;;;;;;2.13;82.66;98758.99;107571;1274;111482;-74
2022/02/07 12:48:13;;;;;;;11.30;5.90;;;;;;;2.19;82.65;98766.61;107425;1274;138089;-74
2022/02/07 12:50:52;;;;;;;10.10;5.70;;;;;;;2.24;82.65;98772.33;107431;1274;108883;-73
2022/02/07 12:53:24;;;;;;;;;;;;;;;2.28;82.67;98777.20;107279;1274;96636;-72
2022/02/07 12:55:58;;;;;;;11.20;5.70;;;;;;;2.31;82.36;98779.70;107430;1274;124369;-73
2022/02/07 12:58:36;;;;;;;9.60;5.00;;;;;;;2.31;82.14;98787.75;107338;1274;114196;-73
2022/02/07 13:01:25;;;;;;;9.40;5.00;;;;;;;2.34;81.95;98796.97;107243;1274;138077;-74
2022/02/07 13:04:00;;;;;;;11.00;5.10;;;;;;;2.40;81.94;98798.04;107317;1274;107734;-74
2022/02/07 13:06:36;;;;;;;12.90;4.90;;;;;;;2.48;81.84;98803.86;106166;1274;138502;-73
2022/02/07 13:09:26;;;;;;;7.50;4.80;;;;;;;2.54;81.77;98805.46;105843;1274;98404;-74
2022/02/07 13:12:12;;;;;;;9.60;4.80;;;;;;;2.63;81.66;98808.82;105903;1274;138751;-73
2022/02/07 13:14:49;;;;;;;11.40;4.90;;;;;;;2.72;81.33;98814.29;105570;1274;107996;-74
2022/02/07 13:17:23;;;;;;;11.60;5.60;;;;;;;2.80;81.24;98817.36;105838;1274;110724;-74
2022/02/07 13:20:05;;;;;;;8.50;4.50;;;;;;;3.02;81.64;98821.13;105529;1273;137326;-74
2022/02/07 13:22:37;;;;;;;10.20;5.00;;;;;;;3.33;81.35;98824.65;105825;1274;97948;-74
2022/02/07 13:25:10;;;;;;;8.00;4.80;;;;;;;3.52;81.19;98832.23;105466;1274;137320;-74
2022/02/07 13:27:43;;;;;;;11.20;4.80;;;;;;;3.72;80.98;98828.06;105702;1274;108019;-73
2022/02/07 13:30:17;;;;;;;8.30;4.80;;;;;;;3.88;80.35;98829.16;105465;1274;138934;-75
2022/02/07 13:32:50;;;;;;;10.60;4.80;;;;;;;4.00;79.78;98830.39;105585;1274;98486;-75
2022/02/07 13:35:22;;;;;;;10.20;5.60;;;;;;;4.06;79.35;98839.52;105570;1274;97856;-75
2022/02/07 13:38:05;;;;;;;8.60;5.20;;;;;;;4.08;79.27;98844.27;105663;1274;137361;-75
2022/02/07 13:40:45;;;;;;;10.40;5.00;;;;;;;4.02;78.50;98852.35;105774;1274;109106;-75
2022/02/07 13:43:24;;;;;;;10.10;5.10;;;;;;;3.94;78.58;98859.80;105500;1274;137647;-76
2022/02/07 13:46:02;;;;;;;11.40;5.90;;;;;;;3.81;78.45;98863.27;105725;1274;97946;-74
2022/02/07 13:48:35;;;;;;;11.70;6.50;;;;;;;3.65;77.99;98868.81;105568;1274;137294;-75
2022/02/07 13:51:08;;;;;;;10.90;5.30;;;;;;;3.47;78.22;98875.82;105569;1274;111628;-75
2022/02/07 13:53:41;;;;;;;14.00;6.00;;;;;;;3.34;78.29;98872.90;105536;1274;140281;-75
2022/02/07 13:56:13;;;;;;;11.30;4.60;;;;;;;3.23;78.49;98881.75;105717;1274;108944;-75